createdAt,value
2018-06-16T00:00:22.373Z,9.37
2018-06-16T00:05:17.104Z,10.60
2018-06-16T00:10:11.929Z,10.33
2018-06-16T00:15:06.747Z,9.97
2018-06-16T00:20:01.395Z,12.17
2018-06-16T00:25:00.562Z,11.83
2018-06-16T00:29:55.583Z,10.00
2018-06-16T00:34:50.246Z,11.10
2018-06-16T00:39:44.726Z,10.57
2018-06-16T00:44:39.464Z,11.10
2018-06-16T00:49:34.043Z,11.37
2018-06-16T00:54:29.202Z,14.63
2018-06-16T00:59:23.910Z,9.73
2018-06-16T01:04:18.510Z,10.10
2018-06-16T01:09:13.105Z,9.73
2018-06-16T01:14:07.627Z,14.77
2018-06-16T01:19:02.277Z,13.43
2018-06-16T01:23:56.787Z,13.50
2018-06-16T01:28:51.347Z,8.73
2018-06-16T01:33:46.254Z,8.63
2018-06-16T01:38:40.794Z,10.57
2018-06-16T01:43:35.799Z,11.33
2018-06-16T01:48:30.335Z,13.23
2018-06-16T01:53:24.898Z,10.53
2018-06-16T01:58:19.481Z,11.47
2018-06-16T02:03:13.964Z,10.20
2018-06-16T02:08:08.514Z,13.53
2018-06-16T02:13:03.098Z,11.47
2018-06-16T02:17:57.713Z,9.87
2018-06-16T02:22:52.853Z,8.03
2018-06-16T02:27:47.735Z,9.90
2018-06-16T02:32:42.313Z,11.17
2018-06-16T02:37:37.043Z,8.80
2018-06-16T02:42:31.336Z,8.63
2018-06-16T02:47:26.052Z,11.07
2018-06-16T02:52:20.546Z,9.37
2018-06-16T02:57:15.040Z,11.10
2018-06-16T03:02:09.532Z,12.30
2018-06-16T03:07:04.150Z,11.37
2018-06-16T03:11:58.706Z,13.53
2018-06-16T03:16:53.401Z,14.80
2018-06-16T03:21:47.931Z,12.17
2018-06-16T03:26:42.451Z,11.53
2018-06-16T03:31:36.980Z,10.77
2018-06-16T03:36:31.686Z,8.43
2018-06-16T03:41:26.445Z,9.53
2018-06-16T03:46:20.726Z,10.17
2018-06-16T03:51:15.603Z,10.53
2018-06-16T03:56:10.116Z,13.03
2018-06-16T04:01:04.857Z,9.33
2018-06-16T04:05:59.579Z,12.40
2018-06-16T04:10:56.872Z,9.70
2018-06-16T04:15:51.421Z,11.53
2018-06-16T04:20:46.110Z,8.33
2018-06-16T04:25:40.624Z,9.67
2018-06-16T04:30:35.965Z,9.47
2018-06-16T04:35:30.605Z,8.47
2018-06-16T04:40:24.894Z,7.33
2018-06-16T04:45:19.870Z,10.07
2018-06-16T04:50:14.446Z,10.97
2018-06-16T04:55:08.888Z,7.37
2018-06-16T05:00:03.380Z,7.50
2018-06-16T05:04:58.195Z,9.07
2018-06-16T05:09:52.976Z,11.80
2018-06-16T05:14:47.303Z,10.27
2018-06-16T05:19:44.814Z,10.97
2018-06-16T05:24:39.460Z,8.50
2018-06-16T05:29:34.021Z,10.60
2018-06-16T05:34:28.738Z,10.13
2018-06-16T05:39:23.886Z,9.47
2018-06-16T05:44:18.376Z,11.03
2018-06-16T05:49:13.563Z,7.43
2018-06-16T05:54:08.477Z,7.60
2018-06-16T05:59:03.493Z,8.17
2018-06-16T06:03:58.206Z,8.77
2018-06-16T06:08:53.502Z,5.23
2018-06-16T06:13:48.202Z,6.10
2018-06-16T06:18:42.453Z,6.50
2018-06-16T06:23:37.892Z,6.10
2018-06-16T06:28:32.987Z,6.13
2018-06-16T06:33:28.957Z,7.83
2018-06-16T06:38:26.174Z,5.93
2018-06-16T06:43:22.166Z,5.00
2018-06-16T06:48:17.084Z,6.70
2018-06-16T06:53:12.031Z,5.70
2018-06-16T06:58:06.974Z,7.30
2018-06-16T07:03:01.763Z,9.43
2018-06-16T07:07:56.546Z,8.40
2018-06-16T07:12:51.375Z,8.30
2018-06-16T07:17:46.358Z,6.77
2018-06-16T07:22:41.342Z,7.20
2018-06-16T07:27:36.381Z,8.53
2018-06-16T07:32:31.183Z,9.53
2018-06-16T07:37:26.812Z,10.27
2018-06-16T07:42:21.647Z,9.07
2018-06-16T07:47:16.554Z,8.53
2018-06-16T07:52:11.327Z,5.67
2018-06-16T07:57:06.116Z,8.10
2018-06-16T08:02:01.245Z,6.77
2018-06-16T08:06:56.342Z,8.00
2018-06-16T08:11:51.126Z,11.07
2018-06-16T08:16:45.859Z,6.63
2018-06-16T08:21:40.793Z,8.13
2018-06-16T08:26:35.706Z,8.10
2018-06-16T08:31:30.801Z,7.13
2018-06-16T08:36:25.604Z,10.90
2018-06-16T08:41:20.242Z,7.70
2018-06-16T08:46:15.170Z,8.17
2018-06-16T08:51:09.970Z,7.00
2018-06-16T08:56:05.671Z,6.63
2018-06-16T09:01:00.390Z,6.40
2018-06-16T09:06:01.863Z,5.23
2018-06-16T09:10:57.054Z,5.60
2018-06-16T09:15:52.132Z,8.07
2018-06-16T09:20:46.900Z,8.13
2018-06-16T09:25:41.680Z,6.77
2018-06-16T09:30:36.835Z,4.73
2018-06-16T09:35:31.746Z,4.80
2018-06-16T09:40:26.596Z,4.20
2018-06-16T09:45:21.325Z,5.60
2018-06-16T09:50:16.154Z,4.63
2018-06-16T09:55:10.894Z,2.97
2018-06-16T10:00:10.603Z,4.57
2018-06-16T10:05:05.525Z,5.63
2018-06-16T10:10:00.733Z,6.60
2018-06-16T10:14:55.543Z,5.93
2018-06-16T10:19:50.362Z,5.80
2018-06-16T10:24:45.299Z,6.23
2018-06-16T10:29:40.135Z,6.43
2018-06-16T10:34:34.657Z,4.33
2018-06-16T10:39:29.457Z,6.50
2018-06-16T10:44:24.204Z,6.23
2018-06-16T10:49:19.394Z,5.23
2018-06-16T10:54:14.169Z,7.20
2018-06-16T10:59:09.753Z,3.97
2018-06-16T11:04:04.481Z,2.90
2018-06-16T11:08:59.213Z,5.57
2018-06-16T11:13:53.999Z,7.80
2018-06-16T11:18:48.787Z,4.80
2018-06-16T11:23:43.794Z,6.47
2018-06-16T11:28:38.293Z,4.50
2018-06-16T11:33:32.989Z,6.13
2018-06-16T11:38:27.747Z,4.50
2018-06-16T11:43:22.820Z,6.40
2018-06-16T11:48:18.402Z,5.97
2018-06-16T11:53:13.480Z,4.70
2018-06-16T11:58:08.372Z,4.80
2018-06-16T12:03:03.803Z,6.13
2018-06-16T12:07:59.098Z,5.53
2018-06-16T12:12:53.947Z,5.97
2018-06-16T12:17:49.489Z,4.20
2018-06-16T12:22:44.236Z,4.90
2018-06-16T12:27:39.429Z,4.33
2018-06-16T12:32:34.189Z,5.17
2018-06-16T12:37:29.122Z,6.63
2018-06-16T12:42:24.357Z,3.30
2018-06-16T12:47:19.261Z,7.80
2018-06-16T12:52:14.558Z,4.73
2018-06-16T12:57:09.462Z,5.27
2018-06-16T13:02:04.400Z,3.97
2018-06-16T13:06:59.136Z,4.47
2018-06-16T13:11:53.883Z,8.23
2018-06-16T13:16:48.871Z,4.27
2018-06-16T13:21:43.932Z,8.80
2018-06-16T13:26:39.458Z,5.17
2018-06-16T13:31:34.732Z,6.27
2018-06-16T13:36:29.909Z,6.87
2018-06-16T13:41:24.619Z,4.53
2018-06-16T13:46:19.595Z,8.53
2018-06-16T13:51:14.357Z,5.97
2018-06-16T13:56:09.230Z,5.63
2018-06-16T14:01:03.957Z,5.70
2018-06-16T14:05:58.412Z,5.60
2018-06-16T14:10:53.292Z,5.43
2018-06-16T14:15:48.119Z,5.93
2018-06-16T14:20:43.108Z,9.47
2018-06-16T14:25:37.769Z,5.13
2018-06-16T14:30:32.526Z,6.07
2018-06-16T14:35:27.071Z,7.13
2018-06-16T14:40:22.161Z,5.10
2018-06-16T14:45:17.080Z,3.93
2018-06-16T14:50:12.266Z,4.53
2018-06-16T14:55:07.278Z,4.17
2018-06-16T15:00:02.104Z,6.43
2018-06-16T15:04:56.880Z,5.40
2018-06-16T15:09:51.425Z,4.35
2018-06-16T15:14:46.350Z,6.43
2018-06-16T15:19:40.844Z,4.97
2018-06-16T15:24:35.566Z,4.73
2018-06-16T15:29:30.491Z,3.87
2018-06-16T15:34:25.152Z,5.43
2018-06-16T15:39:20.253Z,4.10
2018-06-16T15:44:15.387Z,5.00
2018-06-16T15:49:09.956Z,7.37
2018-06-16T15:54:04.638Z,6.53
2018-06-16T15:58:59.095Z,7.43
2018-06-16T16:03:53.661Z,6.97
2018-06-16T16:08:48.154Z,10.73
2018-06-16T16:13:43.458Z,9.13
2018-06-16T16:18:38.754Z,8.87
2018-06-16T16:23:33.441Z,6.87
2018-06-16T16:28:27.999Z,8.80
2018-06-16T16:33:22.259Z,10.67
2018-06-16T16:38:16.860Z,8.10
2018-06-16T16:43:11.707Z,10.70
2018-06-16T16:48:06.217Z,10.63
2018-06-16T16:53:00.948Z,10.50
2018-06-16T16:57:55.636Z,11.27
2018-06-16T17:02:50.826Z,8.77
2018-06-16T17:07:45.505Z,9.93
2018-06-16T17:12:40.188Z,7.83
2018-06-16T17:17:35.061Z,8.97
2018-06-16T17:22:29.588Z,10.63
2018-06-16T17:27:24.487Z,10.07
2018-06-16T17:32:19.016Z,9.73
2018-06-16T17:37:13.786Z,8.77
2018-06-16T17:42:08.319Z,8.03
2018-06-16T17:47:02.846Z,10.03
2018-06-16T17:51:57.627Z,12.90
2018-06-16T17:56:52.464Z,13.67
2018-06-16T18:01:47.338Z,15.53
2018-06-16T18:06:42.109Z,15.80
2018-06-16T18:11:39.532Z,11.50
2018-06-16T18:16:33.990Z,11.47
2018-06-16T18:21:28.621Z,12.23
2018-06-16T18:26:23.291Z,11.47
2018-06-16T18:31:18.308Z,12.20
2018-06-16T18:36:13.358Z,13.60
2018-06-16T18:41:07.936Z,11.93
2018-06-16T18:46:02.419Z,11.97
2018-06-16T18:50:57.139Z,10.70
2018-06-16T18:55:51.996Z,10.30
2018-06-16T19:00:48.827Z,10.10
2018-06-16T19:05:43.546Z,14.63
2018-06-16T19:10:38.710Z,11.40
2018-06-16T19:15:35.355Z,14.40
2018-06-16T19:20:30.005Z,14.70
2018-06-16T19:25:24.852Z,14.43
2018-06-16T19:30:19.344Z,14.97
2018-06-16T19:35:13.897Z,12.33
2018-06-16T19:40:08.881Z,16.43
2018-06-16T19:45:03.378Z,11.10
2018-06-16T19:49:58.705Z,22.30
2018-06-16T19:54:53.206Z,13.40
2018-06-16T20:00:03.846Z,12.30
2018-06-16T20:05:07.519Z,12.37
2018-06-16T20:10:22.201Z,14.07
2018-06-16T20:15:16.814Z,13.53
2018-06-16T20:20:11.303Z,10.57
2018-06-16T20:25:14.345Z,12.40
2018-06-16T20:30:08.906Z,13.13
2018-06-16T20:35:03.655Z,14.57
2018-06-16T20:39:58.800Z,15.03
2018-06-16T20:44:58.788Z,11.83
2018-06-16T20:49:53.568Z,13.30
2018-06-16T20:54:48.635Z,12.60
2018-06-16T20:59:44.012Z,13.70
2018-06-16T21:04:50.712Z,9.27
2018-06-16T21:09:56.238Z,11.70
2018-06-16T21:15:08.082Z,16.03
2018-06-16T21:20:16.959Z,13.63
2018-06-16T21:25:11.590Z,15.67
2018-06-16T21:30:06.792Z,12.87
2018-06-16T21:35:21.085Z,16.70
2018-06-16T21:40:40.219Z,12.43
2018-06-16T21:45:54.475Z,19.03
2018-06-16T21:50:58.635Z,16.20
2018-06-16T21:56:14.289Z,16.10
2018-06-16T22:01:25.085Z,12.93
2018-06-16T22:06:43.239Z,17.20
2018-06-16T22:11:50.436Z,17.00
2018-06-16T22:16:45.116Z,13.80
2018-06-16T22:21:44.641Z,12.37
2018-06-16T22:26:39.903Z,18.97
2018-06-16T22:31:34.891Z,10.13
2018-06-16T22:36:30.821Z,14.97
2018-06-16T22:41:26.080Z,15.70
2018-06-16T22:46:23.927Z,18.43
2018-06-16T22:51:18.678Z,15.10
2018-06-16T22:56:13.772Z,12.80
2018-06-16T23:01:08.509Z,16.63
2018-06-16T23:06:04.098Z,18.03
2018-06-16T23:10:59.321Z,14.00
2018-06-16T23:15:54.191Z,14.70
2018-06-16T23:20:49.165Z,13.73
2018-06-16T23:25:44.079Z,10.93
2018-06-16T23:30:39.069Z,17.13
2018-06-16T23:35:35.748Z,15.57
2018-06-16T23:40:30.341Z,11.93
2018-06-16T23:45:25.063Z,10.20
2018-06-16T23:50:19.617Z,14.67
2018-06-16T23:55:45.676Z,12.37
